Time;durP1;ratioP1;P1;durP2;ratioP2;P2;SDS_P1;SDS_P2;PMS_P1;PMS_P2;Temp;Humidity;BMP_temperature;BMP_pressure;BME280_temperature;BME280_humidity;BME280_pressure;Samples;Min_cycle;Max_cycle;Signal;HPM_P1;HPM_P2
2022/08/18 00:02:02;;;;;;;;;35.00;32.00;;;27.11;97296.24;;;;119107;1187;25642;-66
2022/08/18 00:04:32;;;;;;;;;42.67;35.33;;;27.12;97297.98;;;;119119;1187;25083;-66
2022/08/18 00:07:12;;;;;;;;;37.00;31.67;;;27.12;97296.73;;;;119108;1186;26271;-65
2022/08/18 00:09:41;;;;;;;;;33.25;29.75;;;27.09;97295.23;;;;119059;1189;25722;-68
2022/08/18 00:12:14;;;;;;;;;33.00;29.67;;;27.05;97297.23;;;;119047;1190;25819;-68
2022/08/18 00:14:43;;;;;;;;;37.67;35.67;;;27.04;97299.41;;;;119133;1189;25231;-67
2022/08/18 00:17:11;;;;;;;;;46.67;38.00;;;27.02;97299.64;;;;119149;1187;24928;-67
2022/08/18 00:19:39;;;;;;;;;34.33;32.00;;;27.00;97301.66;;;;119149;1188;25454;-66
2022/08/18 00:22:18;;;;;;;;;33.33;28.67;;;26.95;97305.36;;;;119093;1187;25255;-68
2022/08/18 00:24:48;;;;;;;;;31.50;27.50;;;26.95;97304.09;;;;119085;1187;26308;-69
2022/08/18 00:27:20;;;;;;;;;34.25;29.50;;;26.96;97307.16;;;;119086;1188;25543;-66
2022/08/18 00:29:52;;;;;;;;;29.75;26.50;;;26.97;97304.51;;;;119090;1188;25828;-66
2022/08/18 00:32:24;;;;;;;;;17.50;15.75;;;26.98;97308.75;;;;119096;1189;25440;-65
2022/08/18 00:34:53;;;;;;;;;30.50;28.75;;;26.97;97309.92;;;;119066;1187;25517;-66
2022/08/18 00:37:23;;;;;;;;;28.00;28.00;;;26.97;97315.91;;;;119089;1189;25635;-66
2022/08/18 00:39:52;;;;;;;;;29.50;27.50;;;26.99;97311.52;;;;119085;1189;25795;-67
2022/08/18 00:42:25;;;;;;;;;30.75;28.00;;;26.98;97310.33;;;;119083;1189;25449;-66
2022/08/18 00:45:04;;;;;;;;;31.00;31.00;;;26.99;97309.23;;;;119057;1189;24885;-67
2022/08/18 00:47:32;;;;;;;;;23.75;18.75;;;26.99;97314.88;;;;119091;1189;26121;-66
2022/08/18 00:50:20;;;;;;;;;26.00;24.75;;;26.99;97313.69;;;;119091;1188;25012;-66
2022/08/18 00:53:00;;;;;;;;;31.25;28.00;;;27.02;97317.41;;;;119025;1189;25816;-66
2022/08/18 00:55:29;;;;;;;;;28.25;26.25;;;27.03;97317.75;;;;119108;1188;25142;-67
2022/08/18 00:58:14;;;;;;;;;31.50;22.75;;;27.01;97314.23;;;;119093;1189;24826;-65
2022/08/18 01:00:44;;;;;;;;;26.75;22.50;;;27.01;97315.91;;;;119096;1188;25641;-65
2022/08/18 01:03:14;;;;;;;;;27.33;25.67;;;26.99;97318.45;;;;119043;1189;26552;-66
2022/08/18 01:06:04;;;;;;;;;27.33;25.67;;;26.95;97325.34;;;;119082;1189;24919;-66
2022/08/18 01:08:32;;;;;;;;;18.50;17.75;;;26.93;97328.02;;;;119087;1188;26274;-65
2022/08/18 01:11:01;;;;;;;;;34.00;29.25;;;26.90;97329.56;;;;119182;1187;25176;-66
2022/08/18 01:13:32;;;;;;;;;26.33;22.67;;;26.84;97329.97;;;;119147;1187;24900;-68
2022/08/18 01:21:49;;;;;;;;;24.00;21.75;;;26.82;97327.25;;;;119136;1188;25910;-66
2022/08/18 01:21:49;;;;;;;;;27.00;24.00;;;26.84;97329.31;;;;119124;1187;25179;-69
2022/08/18 01:24:19;;;;;;;;;25.25;22.25;;;26.78;97325.23;;;;119174;1188;25672;-66
2022/08/18 01:26:49;;;;;;;;;24.75;23.00;;;26.75;97328.41;;;;119162;1187;24789;-66
2022/08/18 01:29:18;;;;;;;;;30.67;28.33;;;26.73;97332.16;;;;119051;1189;25366;-66
2022/08/18 01:31:55;;;;;;;;;26.25;25.50;;;26.68;97328.92;;;;119156;1188;25460;-65
2022/08/18 01:34:26;;;;;;;;;31.25;26.50;;;26.66;97326.27;;;;119149;1187;24956;-65
2022/08/18 01:36:55;;;;;;;;;27.25;24.50;;;26.65;97328.09;;;;119168;1187;25102;-65
2022/08/18 01:39:23;;;;;;;;;24.50;24.00;;;26.63;97326.33;;;;119179;1189;25641;-65
2022/08/18 01:42:13;;;;;;;;;29.25;28.00;;;26.66;97326.60;;;;119160;1188;25649;-65
2022/08/18 01:44:42;;;;;;;;;22.33;20.33;;;26.67;97325.59;;;;119189;1188;24824;-65
2022/08/18 01:47:11;;;;;;;;;24.25;24.25;;;26.66;97327.38;;;;119201;1188;25171;-67
2022/08/18 01:49:42;;;;;;;;;29.50;24.25;;;26.64;97325.89;;;;119190;1188;25714;-65
2022/08/18 01:52:16;;;;;;;;;28.50;27.00;;;26.63;97323.08;;;;119190;1189;25509;-65
2022/08/18 01:54:45;;;;;;;;;27.75;24.75;;;26.63;97327.98;;;;119175;1188;24809;-67
2022/08/18 01:57:16;;;;;;;;;31.75;30.00;;;26.64;97332.90;;;;119161;1188;25541;-67
2022/08/18 01:59:43;;;;;;;;;26.00;26.00;;;26.62;97332.77;;;;119168;1189;24952;-66
2022/08/18 02:02:13;;;;;;;;;30.75;29.00;;;26.60;97330.27;;;;119166;1188;25553;-68
2022/08/18 02:04:46;;;;;;;;;21.67;19.00;;;26.60;97320.46;;;;119199;1188;25390;-66
2022/08/18 02:07:14;;;;;;;;;25.25;20.50;;;26.73;97320.59;;;;119018;1187;25595;-67
2022/08/18 02:09:42;;;;;;;;;19.50;19.25;;;26.82;97312.83;;;;119151;1187;25777;-68
2022/08/18 02:12:12;;;;;;;;;22.00;22.00;;;26.92;97311.80;;;;119029;1189;25763;-68
2022/08/18 02:14:40;;;;;;;;;27.67;22.67;;;27.00;97313.42;;;;119141;1188;25698;-69
2022/08/18 02:17:10;;;;;;;;;24.25;21.75;;;27.08;97321.57;;;;119111;1188;25388;-68
2022/08/18 02:19:46;;;;;;;;;27.50;23.50;;;27.18;97318.94;;;;119119;1187;26155;-70
2022/08/18 02:22:18;;;;;;;;;22.75;21.50;;;27.27;97316.88;;;;119143;1186;24883;-73
2022/08/18 02:24:46;;;;;;;;;28.25;25.00;;;27.36;97324.62;;;;119163;1187;24803;-70
2022/08/18 02:27:15;;;;;;;;;27.25;18.75;;;27.49;97330.65;;;;119146;1187;24884;-66
2022/08/18 02:29:42;;;;;;;;;22.75;21.25;;;27.54;97331.86;;;;119131;1188;24681;-65
2022/08/18 02:32:10;;;;;;;;;21.00;20.50;;;27.56;97332.02;;;;119147;1187;24835;-65
2022/08/18 02:34:39;;;;;;;;;25.00;22.50;;;27.58;97334.06;;;;119147;1187;26222;-65
2022/08/18 02:37:08;;;;;;;;;21.75;19.50;;;27.61;97333.77;;;;119145;1188;25718;-65
2022/08/18 02:39:41;;;;;;;;;22.25;18.50;;;27.65;97334.35;;;;119147;1188;25073;-65
2022/08/18 02:42:09;;;;;;;;;19.25;17.50;;;27.69;97335.55;;;;119184;1187;25814;-65
2022/08/18 02:44:37;;;;;;;;;25.75;23.00;;;27.74;97332.30;;;;119556;1187;25816;-66
2022/08/18 02:47:05;;;;;;;;;17.50;17.50;;;28.24;97333.61;;;;119557;1188;25136;-67
2022/08/18 02:49:33;;;;;;;;;23.00;20.25;;;28.68;97333.59;;;;119552;1187;25350;-66
2022/08/18 02:52:02;;;;;;;;;19.25;18.75;;;29.00;97338.89;;;;119586;1188;25346;-66
2022/08/18 02:54:29;;;;;;;;;23.75;19.75;;;29.27;97343.61;;;;119479;1188;25047;-67
2022/08/18 02:56:57;;;;;;;;;22.75;20.25;;;29.47;97337.19;;;;119317;1187;25464;-66
2022/08/18 02:59:26;;;;;;;;;22.50;18.00;;;29.40;97333.06;;;;119160;1188;24759;-69
2022/08/18 03:01:58;;;;;;;;;21.50;21.25;;;29.13;97333.85;;;;119157;1188;25347;-68
2022/08/18 03:04:29;;;;;;;;;21.00;20.00;;;28.88;97334.14;;;;119164;1187;25475;-67
2022/08/18 03:07:04;;;;;;;;;25.00;22.33;;;28.71;97334.08;;;;119177;1187;25525;-68
2022/08/18 03:09:33;;;;;;;;;21.00;21.00;;;28.61;97333.00;;;;119174;1187;25178;-67
2022/08/18 03:12:02;;;;;;;;;21.50;18.00;;;28.53;97337.49;;;;119167;1187;24949;-67
2022/08/18 03:14:30;;;;;;;;;20.25;19.00;;;28.48;97335.64;;;;119161;1187;26092;-66
2022/08/18 03:16:58;;;;;;;;;19.50;19.50;;;28.43;97342.14;;;;119173;1187;24936;-66
2022/08/18 03:19:27;;;;;;;;;17.50;16.00;;;28.37;97347.96;;;;119162;1188;25451;-67
2022/08/18 03:22:00;;;;;;;;;19.67;19.00;;;28.35;97350.38;;;;119175;1188;24823;-66
2022/08/18 03:24:31;;;;;;;;;21.75;21.00;;;28.33;97347.72;;;;119059;1188;26199;-66
2022/08/18 03:27:04;;;;;;;;;21.75;21.50;;;28.32;97349.88;;;;119143;1187;25486;-65
2022/08/18 03:29:34;;;;;;;;;22.00;20.50;;;28.31;97350.21;;;;119164;1188;25251;-65
2022/08/18 03:32:04;;;;;;;;;21.00;17.00;;;28.31;97349.64;;;;119148;1188;26018;-66
2022/08/18 03:34:32;;;;;;;;;15.50;14.50;;;28.31;97352.16;;;;119161;1189;25807;-65
2022/08/18 03:37:00;;;;;;;;;16.00;16.00;;;28.31;97357.77;;;;119137;1188;25034;-66
2022/08/18 03:39:28;;;;;;;;;22.50;18.75;;;28.30;97357.17;;;;119172;1188;25502;-65
2022/08/18 03:41:56;;;;;;;;;21.50;19.75;;;28.30;97352.18;;;;119054;1188;25240;-66
2022/08/18 03:44:31;;;;;;;;;17.50;17.50;;;28.30;97350.95;;;;119124;1189;25665;-65
2022/08/18 03:47:02;;;;;;;;;21.75;19.25;;;28.32;97354.31;;;;119052;1188;25563;-66
2022/08/18 03:49:32;;;;;;;;;22.00;19.25;;;28.34;97354.23;;;;119157;1187;25306;-65
2022/08/18 03:52:00;;;;;;;;;17.75;16.00;;;28.35;97352.89;;;;119172;1189;26331;-66
2022/08/18 03:54:30;;;;;;;;;20.50;19.25;;;28.35;97357.84;;;;119155;1187;25497;-65
2022/08/18 03:56:59;;;;;;;;;19.25;16.75;;;28.36;97359.46;;;;119148;1188;26437;-66
2022/08/18 03:59:30;;;;;;;;;18.00;17.67;;;28.37;97362.25;;;;119153;1188;25606;-65
2022/08/18 04:02:03;;;;;;;;;19.50;17.50;;;28.38;97363.05;;;;119130;1189;25133;-65
2022/08/18 04:04:31;;;;;;;;;19.33;19.33;;;28.40;97359.45;;;;119144;1187;24861;-65
2022/08/18 04:07:07;;;;;;;;;17.25;17.25;;;28.42;97357.75;;;;119030;1190;26363;-66
2022/08/18 04:09:37;;;;;;;;;18.50;17.25;;;28.43;97363.39;;;;119136;1188;25608;-65
2022/08/18 04:12:10;;;;;;;;;21.00;20.25;;;28.44;97356.98;;;;119080;1188;25109;-65
2022/08/18 04:14:46;;;;;;;;;19.75;18.50;;;28.47;97359.54;;;;119098;1189;25281;-66
2022/08/18 04:17:23;;;;;;;;;18.25;18.25;;;28.52;97359.30;;;;119112;1189;25019;-65
2022/08/18 04:19:53;;;;;;;;;17.00;15.25;;;28.70;97365.60;;;;119151;1189;26324;-66
2022/08/18 04:22:21;;;;;;;;;18.75;15.75;;;28.83;97368.04;;;;119086;1189;24962;-66
2022/08/18 04:24:49;;;;;;;;;18.50;18.50;;;28.93;97367.55;;;;119135;1189;25979;-66
2022/08/18 04:27:19;;;;;;;;;15.33;15.00;;;29.01;97366.21;;;;119137;1189;25505;-66
2022/08/18 04:29:47;;;;;;;;;20.75;17.00;;;29.08;97368.10;;;;119151;1188;26145;-66
2022/08/18 04:32:15;;;;;;;;;25.00;17.75;;;29.13;97374.84;;;;119028;1189;26022;-67
2022/08/18 04:34:43;;;;;;;;;18.50;16.50;;;29.01;97376.70;;;;119008;1188;25375;-65
2022/08/18 04:37:12;;;;;;;;;17.00;16.00;;;28.90;97373.62;;;;119043;1187;26387;-65
2022/08/18 04:39:41;;;;;;;;;16.00;16.00;;;28.83;97372.64;;;;119085;1189;24811;-66
2022/08/18 04:42:10;;;;;;;;;17.25;16.25;;;28.79;97377.16;;;;119052;1187;25295;-67
2022/08/18 04:44:37;;;;;;;;;17.25;15.50;;;28.76;97378.62;;;;119001;1189;25586;-65
2022/08/18 04:47:08;;;;;;;;;18.00;17.00;;;28.73;97377.57;;;;119161;1188;26316;-67
2022/08/18 04:49:36;;;;;;;;;22.00;19.75;;;28.72;97376.39;;;;119142;1187;25863;-68
2022/08/18 04:55:09;;;;;;;;;20.75;18.25;;;28.75;97365.63;;;;119122;1188;24842;-68
2022/08/18 04:57:37;;;;;;;;;19.50;17.50;;;28.75;97367.39;;;;119149;1187;25817;-67
2022/08/18 05:00:10;;;;;;;;;18.00;17.50;;;28.74;97376.77;;;;119156;1186;24885;-72
2022/08/18 05:02:39;;;;;;;;;21.75;19.75;;;28.74;97373.71;;;;119148;1188;24838;-68
2022/08/18 05:05:08;;;;;;;;;20.75;17.75;;;28.75;97378.39;;;;119033;1190;25618;-70
2022/08/18 05:07:36;;;;;;;;;15.50;14.75;;;28.76;97381.85;;;;119159;1187;25332;-77
2022/08/18 05:10:04;;;;;;;;;16.00;15.75;;;28.81;97375.36;;;;119145;1187;26017;-79
2022/08/18 05:12:32;;;;;;;;;15.00;12.75;;;29.18;97377.19;;;;119145;1188;25229;-77
2022/08/18 05:15:00;;;;;;;;;19.00;17.25;;;29.80;97380.27;;;;119167;1187;25769;-74
2022/08/18 05:17:28;;;;;;;;;24.00;17.50;;;30.49;97377.33;;;;119128;1187;24916;-73
2022/08/18 05:19:59;;;;;;;;;24.50;21.00;;;31.10;97374.42;;;;119167;1188;26054;-73
2022/08/18 05:22:29;;;;;;;;;20.50;19.50;;;31.60;97374.06;;;;119163;1188;24775;-72
2022/08/18 05:24:58;;;;;;;;;25.00;19.50;;;32.02;97370.20;;;;119162;1188;25373;-71
2022/08/18 05:27:34;;;;;;;;;22.50;18.75;;;32.35;97367.05;;;;119164;1187;25708;-71
2022/08/18 05:30:10;;;;;;;;;32.00;21.75;;;32.66;97366.05;;;;119160;1187;25448;-70
2022/08/18 05:32:43;;;;;;;;;35.25;24.75;;;32.82;97366.67;;;;118983;1189;25599;-69
2022/08/18 05:35:40;;;;;;;;;19.75;19.75;;;32.14;97365.13;;;;119147;1188;24932;-66
2022/08/18 05:38:26;;;;;;;;;26.00;24.50;;;31.43;97369.81;;;;119137;1188;24878;-70
2022/08/18 05:41:46;;;;;;;;;39.00;28.00;;;30.95;97369.09;;;;119184;1186;25526;-69
2022/08/18 05:44:17;;;;;;;;;27.75;22.25;;;30.64;97367.84;;;;118864;1189;26325;-66
2022/08/18 05:46:51;;;;;;;;;27.00;22.75;;;30.41;97374.13;;;;119021;1187;26124;-68
2022/08/18 05:49:19;;;;;;;;;27.50;23.00;;;30.20;97379.96;;;;119039;1190;25209;-66
2022/08/18 05:52:12;;;;;;;;;30.75;27.00;;;30.01;97380.32;;;;119151;1186;25548;-68
2022/08/18 05:57:37;;;;;;;;;34.75;29.50;;;29.84;97380.33;;;;119152;1186;25284;-66
2022/08/18 06:00:09;;;;;;;;;28.00;26.50;;;29.70;97384.34;;;;119056;1189;25224;-68
2022/08/18 06:02:51;;;;;;;;;28.75;24.75;;;29.59;97378.41;;;;119182;1188;26444;-68
2022/08/18 06:05:27;;;;;;;;;31.50;26.50;;;29.51;97379.73;;;;119176;1188;26030;-68
2022/08/18 06:07:59;;;;;;;;;34.25;27.50;;;29.43;97379.63;;;;119165;1187;25317;-68
2022/08/18 06:10:27;;;;;;;;;36.75;31.00;;;29.40;97379.27;;;;119039;1189;25675;-68
2022/08/18 06:12:59;;;;;;;;;26.25;23.50;;;29.36;97380.08;;;;119157;1188;25147;-68
2022/08/18 06:15:32;;;;;;;;;35.00;29.25;;;29.33;97382.95;;;;119025;1189;25295;-66
2022/08/18 06:18:19;;;;;;;;;31.50;24.00;;;29.31;97386.41;;;;119161;1188;26280;-69
2022/08/18 06:21:12;;;;;;;;;27.25;25.50;;;29.28;97387.91;;;;119161;1187;25321;-71
2022/08/18 06:23:48;;;;;;;;;45.25;29.50;;;29.25;97391.45;;;;119061;1189;25252;-70
2022/08/18 06:26:33;;;;;;;;;37.75;23.25;;;29.21;97393.88;;;;119146;1189;25204;-70
2022/08/18 06:29:25;;;;;;;;;42.50;26.75;;;29.22;97399.73;;;;119171;1188;25293;-67
2022/08/18 06:32:30;;;;;;;;;22.00;16.50;;;29.21;97400.55;;;;119376;1189;25487;-69
2022/08/18 06:35:36;;;;;;;;;31.50;30.00;;;29.65;97401.91;;;;119036;1190;25740;-69
2022/08/18 06:38:38;;;;;;;;;39.25;33.50;;;29.62;97403.77;;;;119006;1190;25479;-70
2022/08/18 06:41:20;;;;;;;;;32.25;25.75;;;29.56;97408.71;;;;119007;1189;25546;-71
2022/08/18 06:44:10;;;;;;;;;37.25;30.50;;;29.51;97404.11;;;;119010;1190;25452;-71
2022/08/18 06:46:41;;;;;;;;;36.00;29.50;;;29.43;97404.10;;;;119021;1188;24976;-72
2022/08/18 06:49:14;;;;;;;;;38.00;30.75;;;29.35;97401.88;;;;119026;1190;25113;-70
2022/08/18 06:51:42;;;;;;;;;31.75;25.75;;;29.29;97403.16;;;;119106;1188;25023;-70
2022/08/18 06:54:16;;;;;;;;;36.25;27.75;;;29.38;97406.71;;;;119073;1190;25307;-70
2022/08/18 06:56:49;;;;;;;;;38.67;30.67;;;29.47;97407.71;;;;119087;1190;26276;-69
2022/08/18 06:59:19;;;;;;;;;32.75;27.50;;;29.56;97406.66;;;;119072;1190;25183;-70
2022/08/18 07:01:58;;;;;;;;;35.75;31.50;;;29.61;97410.72;;;;119084;1189;25203;-69
2022/08/18 07:04:33;;;;;;;;;31.75;30.50;;;29.65;97413.61;;;;119057;1190;26368;-69
2022/08/18 07:07:19;;;;;;;;;34.33;31.67;;;29.55;97413.45;;;;119028;1189;24882;-69
2022/08/18 07:09:47;;;;;;;;;36.00;28.00;;;29.43;97410.27;;;;119029;1190;25216;-68
2022/08/18 07:12:22;;;;;;;;;32.00;28.00;;;29.34;97403.39;;;;119057;1188;25512;-68
2022/08/18 07:15:00;;;;;;;;;39.00;30.00;;;29.30;97403.07;;;;119041;1190;25902;-69
2022/08/18 07:17:34;;;;;;;;;33.00;27.75;;;29.28;97403.08;;;;119022;1190;25048;-71
2022/08/18 07:20:20;;;;;;;;;33.50;28.50;;;29.26;97398.93;;;;119022;1190;25551;-73
2022/08/18 07:22:55;;;;;;;;;31.00;25.25;;;29.24;97398.18;;;;119036;1189;24894;-70
2022/08/18 07:25:39;;;;;;;;;26.75;21.75;;;29.21;97400.85;;;;119056;1189;24831;-72
2022/08/18 07:28:29;;;;;;;;;32.00;25.00;;;29.20;97399.80;;;;119029;1189;24861;-71
2022/08/18 07:31:29;;;;;;;;;28.50;22.50;;;29.23;97395.33;;;;119023;1189;25387;-73
2022/08/18 07:34:07;;;;;;;;;29.00;26.50;;;29.24;97388.87;;;;119013;1190;25026;-69
2022/08/18 07:36:42;;;;;;;;;27.50;24.50;;;29.20;97389.88;;;;119018;1190;25694;-70
2022/08/18 07:39:17;;;;;;;;;28.75;22.75;;;29.19;97388.02;;;;119007;1189;26046;-70
2022/08/18 07:41:58;;;;;;;;;28.50;27.75;;;29.20;97392.37;;;;119014;1189;24981;-73
2022/08/18 07:44:44;;;;;;;;;31.25;26.00;;;29.20;97391.47;;;;119004;1189;25425;-71
2022/08/18 07:47:14;;;;;;;;;28.75;22.25;;;29.21;97390.02;;;;119013;1189;25553;-71
2022/08/18 07:49:45;;;;;;;;;20.00;19.50;;;29.19;97389.73;;;;119030;1189;25756;-71
2022/08/18 07:52:41;;;;;;;;;28.50;24.00;;;29.21;97391.79;;;;119032;1189;25174;-70
2022/08/18 07:55:27;;;;;;;;;22.50;19.75;;;29.23;97388.98;;;;119040;1189;24857;-70
2022/08/18 07:58:15;;;;;;;;;29.25;26.25;;;29.22;97388.20;;;;118986;1190;24986;-73
2022/08/18 08:01:39;;;;;;;;;29.50;25.25;;;29.22;97387.05;;;;119024;1190;25161;-71
2022/08/18 08:04:29;;;;;;;;;27.25;26.50;;;29.30;97389.52;;;;118515;1193;25478;-71
2022/08/18 08:07:09;;;;;;;;;24.00;22.25;;;29.25;97395.20;;;;118505;1191;24858;-70
2022/08/18 08:09:58;;;;;;;;;30.50;27.50;;;29.27;97399.57;;;;118930;1191;26329;-70
2022/08/18 08:12:42;;;;;;;;;32.00;26.75;;;29.26;97396.97;;;;119023;1189;25368;-70
2022/08/18 08:15:16;;;;;;;;;29.50;27.50;;;29.23;97394.16;;;;119029;1189;26134;-74
2022/08/18 08:18:08;;;;;;;;;24.75;22.75;;;29.22;97394.69;;;;119031;1189;25574;-69
2022/08/18 08:20:46;;;;;;;;;24.00;19.33;;;29.24;97395.39;;;;119041;1190;25488;-69
2022/08/18 08:23:30;;;;;;;;;20.50;18.75;;;29.24;97393.38;;;;119037;1189;25532;-69
2022/08/18 08:25:58;;;;;;;;;23.75;21.00;;;29.24;97395.63;;;;119024;1189;26054;-70
2022/08/18 08:28:35;;;;;;;;;21.75;20.75;;;29.23;97392.08;;;;119039;1189;25860;-69
2022/08/18 08:31:24;;;;;;;;;22.75;20.00;;;29.20;97391.52;;;;119021;1189;24712;-69
2022/08/18 08:34:11;;;;;;;;;22.75;21.00;;;29.23;97388.18;;;;118994;1190;25057;-69
2022/08/18 08:36:43;;;;;;;;;27.50;24.00;;;29.23;97386.76;;;;119002;1190;25418;-65
2022/08/18 08:39:23;;;;;;;;;25.25;22.75;;;29.24;97384.95;;;;118941;1191;25403;-68
2022/08/18 08:41:56;;;;;;;;;23.67;22.00;;;29.24;97384.74;;;;118990;1189;26427;-69
2022/08/18 08:44:45;;;;;;;;;26.00;22.50;;;29.28;97390.67;;;;118994;1190;25595;-69
2022/08/18 08:47:56;;;;;;;;;27.25;24.25;;;29.32;97392.19;;;;119009;1190;25538;-69
2022/08/18 08:50:46;;;;;;;;;26.00;24.50;;;29.37;97393.71;;;;119029;1190;25523;-69
2022/08/18 08:53:13;;;;;;;;;17.25;13.25;;;29.36;97392.83;;;;119016;1189;24767;-67
2022/08/18 08:55:47;;;;;;;;;27.50;25.25;;;29.34;97395.28;;;;119032;1189;25749;-68
2022/08/18 08:58:39;;;;;;;;;22.75;21.50;;;29.31;97395.08;;;;118987;1190;25867;-68
2022/08/18 09:01:20;;;;;;;;;28.50;25.00;;;29.32;97395.75;;;;119036;1189;25906;-68
2022/08/18 09:03:55;;;;;;;;;29.25;23.75;;;29.32;97395.06;;;;118984;1190;25276;-71
2022/08/18 09:06:50;;;;;;;;;24.25;23.25;;;29.35;97394.76;;;;118969;1189;25125;-70
2022/08/18 09:09:53;;;;;;;;;24.25;24.25;;;29.40;97397.02;;;;119035;1189;25935;-71
2022/08/18 09:12:40;;;;;;;;;29.75;26.25;;;29.39;97395.48;;;;119003;1189;25089;-70
2022/08/18 09:15:15;;;;;;;;;28.00;25.25;;;29.36;97395.10;;;;118906;1190;26161;-75
2022/08/18 09:18:01;;;;;;;;;28.00;22.00;;;29.42;97390.39;;;;118895;1190;25633;-73
2022/08/18 09:20:36;;;;;;;;;23.00;20.50;;;29.51;97387.38;;;;118914;1189;25460;-72
2022/08/18 09:23:16;;;;;;;;;29.75;24.00;;;29.53;97388.64;;;;118936;1190;25868;-71
2022/08/18 09:25:49;;;;;;;;;23.75;21.25;;;29.58;97388.23;;;;118951;1189;25327;-66
2022/08/18 09:28:38;;;;;;;;;23.50;22.75;;;29.60;97388.86;;;;118944;1190;25020;-69
2022/08/18 09:31:06;;;;;;;;;21.75;21.75;;;29.63;97387.63;;;;118864;1191;26294;-65
2022/08/18 09:33:44;;;;;;;;;19.00;18.00;;;29.65;97381.81;;;;119126;1188;25960;-65
2022/08/18 09:36:38;;;;;;;;;25.25;24.75;;;29.63;97376.02;;;;118972;1190;26035;-72
2022/08/18 09:42:15;;;;;;;;;25.50;23.75;;;29.74;97371.61;;;;119151;1188;25064;-69
2022/08/18 09:44:45;;;;;;;;;24.25;23.00;;;29.72;97370.17;;;;118972;1189;25972;-67
2022/08/18 09:47:19;;;;;;;;;25.50;23.50;;;29.70;97369.39;;;;119121;1188;24947;-66
2022/08/18 09:49:52;;;;;;;;;27.25;24.00;;;29.69;97369.36;;;;119109;1188;25378;-68
2022/08/18 09:52:21;;;;;;;;;20.75;19.00;;;29.71;97363.45;;;;119126;1188;25924;-67
2022/08/18 09:54:57;;;;;;;;;21.50;21.50;;;29.73;97363.35;;;;119119;1188;25707;-70
2022/08/18 09:57:34;;;;;;;;;24.00;23.33;;;29.76;97361.93;;;;119080;1188;26237;-70
2022/08/18 10:00:12;;;;;;;;;25.25;22.75;;;29.79;97361.33;;;;119083;1187;25698;-68
2022/08/18 10:02:40;;;;;;;;;26.00;22.25;;;29.80;97356.67;;;;119089;1187;25555;-69
2022/08/18 10:05:15;;;;;;;;;22.25;21.25;;;29.82;97356.37;;;;119077;1187;24945;-67
2022/08/18 10:08:00;;;;;;;;;24.75;20.75;;;29.83;97356.98;;;;119060;1188;24845;-68
2022/08/18 10:10:50;;;;;;;;;23.25;20.00;;;29.85;97357.21;;;;119070;1187;24833;-68
2022/08/18 10:14:15;;;;;;;;;25.50;23.00;;;29.89;97358.98;;;;119063;1188;25523;-67
2022/08/18 10:16:51;;;;;;;;;25.75;22.75;;;30.00;97361.72;;;;118890;1189;25836;-66
2022/08/18 10:20:04;;;;;;;;;21.00;20.00;;;30.05;97360.07;;;;119091;1188;24813;-72
2022/08/18 10:22:42;;;;;;;;;21.00;18.75;;;30.06;97360.19;;;;119068;1188;25375;-72
2022/08/18 10:25:13;;;;;;;;;20.25;17.50;;;30.04;97354.52;;;;118989;1189;26289;-73
2022/08/18 10:27:56;;;;;;;;;17.25;15.75;;;30.05;97355.90;;;;118965;1189;25490;-72
2022/08/18 10:30:43;;;;;;;;;27.25;23.00;;;30.06;97357.17;;;;118964;1190;25627;-69
2022/08/18 10:34:00;;;;;;;;;22.75;20.50;;;30.15;97357.61;;;;119082;1189;25395;-67
2022/08/18 10:36:49;;;;;;;;;22.25;21.75;;;30.18;97359.52;;;;119097;1189;25646;-70
2022/08/18 10:39:43;;;;;;;;;24.25;22.25;;;30.15;97360.98;;;;119059;1188;25327;-68
2022/08/18 10:42:22;;;;;;;;;25.75;23.00;;;30.15;97362.41;;;;119036;1187;25471;-69
2022/08/18 10:45:29;;;;;;;;;21.25;19.00;;;30.19;97354.66;;;;119102;1187;25424;-69
2022/08/18 10:48:03;;;;;;;;;22.50;20.50;;;30.21;97352.13;;;;119075;1188;25684;-67
2022/08/18 10:50:47;;;;;;;;;26.33;23.67;;;30.20;97354.36;;;;119085;1188;25692;-69
2022/08/18 10:53:25;;;;;;;;;28.00;24.75;;;30.18;97356.30;;;;119089;1188;25037;-67
2022/08/18 10:56:40;;;;;;;;;23.67;23.33;;;30.22;97351.95;;;;119087;1188;25407;-70
2022/08/18 10:59:24;;;;;;;;;22.50;21.75;;;30.24;97352.98;;;;119098;1187;25838;-68
2022/08/18 11:02:13;;;;;;;;;25.00;22.00;;;30.22;97351.67;;;;119101;1187;25149;-71
2022/08/18 11:04:46;;;;;;;;;25.25;20.75;;;30.25;97353.28;;;;119057;1187;25767;-67
2022/08/18 11:07:30;;;;;;;;;21.75;20.25;;;30.27;97351.09;;;;118978;1189;26496;-66
2022/08/18 11:10:18;;;;;;;;;25.50;20.00;;;30.27;97349.71;;;;119095;1189;26139;-66
2022/08/18 11:13:36;;;;;;;;;23.00;20.75;;;30.37;97349.56;;;;119060;1187;26020;-67
2022/08/18 11:16:28;;;;;;;;;23.25;20.75;;;30.44;97352.16;;;;118973;1189;25206;-66
2022/08/18 11:19:05;;;;;;;;;27.50;26.25;;;30.42;97351.98;;;;119040;1187;26222;-70
2022/08/18 11:21:35;;;;;;;;;25.50;18.75;;;30.41;97347.92;;;;119351;1189;24772;-70
2022/08/18 11:24:14;;;;;;;;;24.75;20.00;;;30.76;97348.95;;;;119082;1188;25277;-69
2022/08/18 11:26:47;;;;;;;;;24.50;21.50;;;30.75;97352.48;;;;119095;1188;25953;-69
2022/08/18 11:29:34;;;;;;;;;19.00;18.50;;;30.63;97349.05;;;;119111;1187;26341;-69
2022/08/18 11:32:23;;;;;;;;;19.25;19.25;;;30.55;97339.05;;;;119097;1188;24927;-69
2022/08/18 11:34:59;;;;;;;;;24.50;23.75;;;30.51;97336.13;;;;119084;1188;25961;-69
2022/08/18 11:37:45;;;;;;;;;22.00;20.50;;;30.45;97337.02;;;;119055;1188;25566;-70
2022/08/18 11:40:35;;;;;;;;;22.25;20.25;;;30.45;97338.98;;;;119248;1190;25145;-70
2022/08/18 11:43:30;;;;;;;;;26.75;23.25;;;30.80;97341.48;;;;118993;1188;25223;-67
2022/08/18 11:46:32;;;;;;;;;25.25;21.75;;;30.77;97340.56;;;;119024;1188;25650;-67
2022/08/18 11:49:16;;;;;;;;;20.75;19.50;;;30.65;97337.73;;;;118992;1189;25525;-69
2022/08/18 11:52:01;;;;;;;;;26.25;20.75;;;30.61;97334.02;;;;119086;1187;24921;-67
2022/08/18 11:54:40;;;;;;;;;19.00;18.50;;;30.54;97335.11;;;;118940;1190;25004;-70
2022/08/18 11:57:56;;;;;;;;;24.50;19.25;;;30.54;97338.75;;;;119084;1187;25662;-68
2022/08/18 12:00:46;;;;;;;;;19.00;19.00;;;30.55;97330.11;;;;118820;1188;25299;-65
2022/08/18 12:03:38;;;;;;;;;22.50;22.00;;;30.58;97336.73;;;;119082;1188;25811;-64
2022/08/18 12:06:23;;;;;;;;;20.00;18.25;;;30.55;97332.18;;;;118965;1190;26279;-67
2022/08/18 12:08:56;;;;;;;;;17.00;17.00;;;30.56;97328.69;;;;119089;1188;24799;-66
2022/08/18 12:11:28;;;;;;;;;23.00;18.75;;;30.57;97328.59;;;;119080;1188;25473;-73
2022/08/18 12:14:04;;;;;;;;;18.75;17.50;;;30.53;97324.19;;;;118950;1188;24725;-62
2022/08/18 12:16:52;;;;;;;;;22.50;22.50;;;30.61;97321.89;;;;119073;1189;25026;-66
2022/08/18 12:19:23;;;;;;;;;25.25;22.00;;;30.61;97316.84;;;;119077;1188;25328;-67
2022/08/18 12:21:56;;;;;;;;;22.75;20.75;;;30.62;97322.19;;;;119074;1188;26090;-63
2022/08/18 12:24:28;;;;;;;;;21.25;17.50;;;30.62;97326.45;;;;119040;1188;25412;-61
2022/08/18 12:27:04;;;;;;;;;26.50;26.50;;;30.62;97319.02;;;;118993;1188;25083;-67
2022/08/18 12:29:51;;;;;;;;;23.50;23.50;;;30.64;97316.77;;;;119028;1188;25381;-63
2022/08/18 12:32:21;;;;;;;;;23.50;21.50;;;30.65;97309.94;;;;119007;1190;25365;-62
2022/08/18 12:35:10;;;;;;;;;22.50;20.25;;;30.69;97314.04;;;;119004;1187;25135;-63
2022/08/18 12:37:42;;;;;;;;;22.75;21.75;;;30.69;97316.23;;;;118971;1190;25700;-64
2022/08/18 12:40:31;;;;;;;;;24.00;20.50;;;30.76;97312.98;;;;119039;1188;25092;-63
2022/08/18 12:42:59;;;;;;;;;26.50;24.25;;;30.75;97310.36;;;;118980;1189;24983;-64
2022/08/18 12:45:29;;;;;;;;;25.00;23.00;;;30.71;97305.69;;;;119042;1189;24792;-64
2022/08/18 12:48:01;;;;;;;;;17.50;16.50;;;30.71;97308.45;;;;119044;1189;24953;-65
2022/08/18 12:50:31;;;;;;;;;23.00;20.33;;;30.71;97310.31;;;;119011;1188;26093;-65
2022/08/18 12:53:10;;;;;;;;;24.25;23.25;;;30.75;97319.59;;;;119452;1188;24983;-70